?anl?urfa GAP Airport
LTCS : now visible

Airfield :











YOU CAN JOIN US ON...

 
LOGIN :

Register | Disclaimer

   EN    FR    IT 

 









Legend :    VFR   Marginal VFR   IFR   Intensive IFR   Very Intensive IFR
Visi :
Ceiling :
>= 8 km
>= 3000ft
5 to 8 km
1000 to 3000 ft
1500m to 5 km
500 to 1000 ft
800 to 1500m
200 to 500 ft
< 800m
< 200 ft
Symbols :   Thunderstorms  Fog  Heavy snow  Heavy precipitations  Wind > 20 kt






- Airport Elevation : 2708 ft
- IATA code : GNY


LTCS - ?anl?urfa GAP

CURRENT METAR :
  • 041820Z 00000KT CAVOK 12/01 Q1023 RMK RWY22 23003KT

EXPIRED METARs :
  • 041750Z 25003KT CAVOK 12/05 Q1023 RMK RWY22 24003KT
  • 041720Z 00000KT 9999 FEW040 BKN150 12/04 Q1022 RMK RWY22 22002KT
  • 041650Z 00000KT 9999 FEW040 BKN150 12/05 Q1022 RMK RWY22 00000KT
  • 041620Z 00000KT 9999 FEW040 BKN150 12/04 Q1021 RMK RWY22 23002KT
  • 041550Z 00000KT 9999 FEW040 BKN150 13/04 Q1021 RMK RWY22 29003KT

TAF TAF LTCS
Valid from the 04 at 18:00 until the 05 at 18:00 UTC


041640Z 0418/0518 VRB02KT CAVOK
BECMG 0500/0502 FEW040 BKN100



MET'MAP, your aeronautical weather chart ! - Copyright ORBIFLY December 2007 - Disclaimer

ORBIFLY MET'MAP TEAM :

Programming & Development : Alexandra Zaïnal
Concept & original design : Baudouin d'Aumeries
Assistance for programming : Marc-Olivier Méhu
Technical & hardware support : Manuel Goepfert

Contact : metmap@orbifly.com




SOURCES & CREDITS :

   NOAA       Earth
Advisory